createdAt,value
2018-09-19T00:02:17.683Z,8.17
2018-09-19T00:04:46.111Z,13.03
2018-09-19T00:07:14.579Z,12.50
2018-09-19T00:09:42.960Z,8.77
2018-09-19T00:12:11.283Z,11.23
2018-09-19T00:14:39.602Z,10.70
2018-09-19T00:17:08.023Z,11.43
2018-09-19T00:19:36.398Z,10.50
2018-09-19T00:22:04.822Z,12.73
2018-09-19T00:24:33.224Z,9.63
2018-09-19T00:27:01.495Z,7.93
2018-09-19T00:29:29.882Z,10.00
2018-09-19T00:31:58.309Z,13.90
2018-09-19T00:34:26.656Z,8.80
2018-09-19T00:36:55.112Z,15.37
2018-09-19T00:39:23.428Z,13.57
2018-09-19T00:41:52.021Z,12.67
2018-09-19T00:44:20.468Z,13.33
2018-09-19T00:46:48.857Z,16.40
2018-09-19T00:49:17.159Z,11.27
2018-09-19T00:51:45.518Z,11.57
2018-09-19T00:54:13.859Z,10.83
2018-09-19T00:56:42.205Z,11.53
2018-09-19T00:59:10.814Z,13.73
2018-09-19T01:01:39.270Z,12.70
2018-09-19T01:04:08.107Z,11.70
2018-09-19T01:06:37.018Z,11.00
2018-09-19T01:09:07.218Z,18.10
2018-09-19T01:11:35.641Z,11.20
2018-09-19T01:14:04.271Z,12.53
2018-09-19T01:16:33.025Z,14.70
2018-09-19T01:19:01.425Z,24.47
2018-09-19T01:21:29.965Z,13.73
2018-09-19T01:23:58.446Z,14.20
2018-09-19T01:26:27.978Z,10.73
2018-09-19T01:28:56.408Z,13.20
2018-09-19T01:31:24.839Z,13.73
2018-09-19T01:33:53.511Z,11.47
2018-09-19T01:36:21.972Z,11.17
2018-09-19T01:38:50.591Z,8.57
2018-09-19T01:41:19.097Z,12.43
2018-09-19T01:43:47.600Z,10.00
2018-09-19T01:46:16.185Z,12.47
2018-09-19T01:48:45.628Z,13.40
2018-09-19T01:51:14.082Z,14.47
2018-09-19T01:53:42.608Z,12.13
2018-09-19T01:56:11.000Z,16.57
2018-09-19T01:58:39.423Z,13.83
2018-09-19T02:01:07.887Z,11.83
2018-09-19T02:03:36.245Z,10.87
2018-09-19T02:06:04.748Z,14.60
2018-09-19T02:08:33.140Z,16.73
2018-09-19T02:11:01.505Z,15.10
2018-09-19T02:13:29.937Z,15.60
2018-09-19T02:15:58.352Z,14.33
2018-09-19T02:18:26.808Z,14.10
2018-09-19T02:20:55.162Z,19.10
2018-09-19T02:23:23.570Z,14.23
2018-09-19T02:25:52.043Z,13.80
2018-09-19T02:28:20.546Z,12.60
2018-09-19T02:30:48.852Z,14.87
2018-09-19T02:33:17.213Z,13.23
2018-09-19T02:35:45.572Z,16.20
2018-09-19T02:38:14.460Z,13.70
2018-09-19T02:40:42.908Z,14.50
2018-09-19T02:43:11.310Z,13.93
2018-09-19T02:45:39.766Z,13.03
2018-09-19T02:48:08.200Z,14.83
2018-09-19T02:50:36.745Z,16.80
2018-09-19T02:53:05.101Z,14.43
2018-09-19T02:55:33.533Z,18.63
2018-09-19T02:58:01.890Z,20.33
2018-09-19T03:00:30.387Z,16.37
2018-09-19T03:02:58.760Z,11.40
2018-09-19T03:05:27.294Z,18.47
2018-09-19T03:07:55.646Z,15.60
2018-09-19T03:10:24.103Z,19.37
2018-09-19T03:12:52.540Z,14.77
2018-09-19T03:15:20.920Z,13.50
2018-09-19T03:17:49.391Z,11.70
2018-09-19T03:20:17.688Z,13.07
2018-09-19T03:22:46.035Z,16.17
2018-09-19T03:25:14.522Z,17.10
2018-09-19T03:27:42.983Z,16.33
2018-09-19T03:30:11.380Z,13.87
2018-09-19T03:32:39.827Z,12.43
2018-09-19T03:35:08.243Z,13.67
2018-09-19T03:37:36.692Z,15.07
2018-09-19T03:40:05.747Z,19.87
2018-09-19T03:42:34.161Z,14.07
2018-09-19T03:45:02.537Z,15.37
2018-09-19T03:47:30.986Z,20.13
2018-09-19T03:49:59.352Z,17.10
2018-09-19T03:52:27.878Z,14.37
2018-09-19T03:54:56.207Z,21.37
2018-09-19T03:57:24.608Z,15.53
2018-09-19T03:59:53.119Z,19.33
2018-09-19T04:02:21.443Z,13.77
2018-09-19T04:04:49.963Z,13.50
2018-09-19T04:07:18.323Z,17.03
2018-09-19T04:09:46.723Z,14.90
2018-09-19T04:12:15.111Z,20.10
2018-09-19T04:14:43.454Z,16.97
2018-09-19T04:17:11.798Z,20.17
2018-09-19T04:19:40.151Z,17.40
2018-09-19T04:22:08.487Z,19.07
2018-09-19T04:24:36.850Z,15.90
2018-09-19T04:27:05.416Z,14.37
2018-09-19T04:29:33.774Z,15.77
2018-09-19T04:32:02.232Z,15.13
2018-09-19T04:34:30.580Z,18.43
2018-09-19T04:36:58.960Z,22.37
2018-09-19T04:39:27.492Z,15.60
2018-09-19T04:41:55.963Z,15.07
2018-09-19T04:44:24.283Z,20.00
2018-09-19T04:46:52.668Z,14.77
2018-09-19T04:49:21.125Z,17.83
2018-09-19T04:51:49.612Z,19.03
2018-09-19T04:54:18.147Z,23.03
2018-09-19T04:56:46.640Z,21.63
2018-09-19T04:59:14.985Z,16.23
2018-09-19T05:01:43.295Z,18.77
2018-09-19T05:04:11.727Z,18.93
2018-09-19T05:06:40.209Z,22.73
2018-09-19T05:09:09.607Z,23.20
2018-09-19T05:11:39.057Z,26.97
2018-09-19T05:14:07.880Z,25.97
2018-09-19T05:16:36.686Z,30.70
2018-09-19T05:19:05.384Z,31.27
2018-09-19T05:21:33.767Z,37.80
2018-09-19T05:24:05.364Z,39.77
2018-09-19T05:26:33.792Z,39.50
2018-09-19T05:29:04.175Z,61.67
2018-09-19T05:31:39.584Z,59.27
2018-09-19T05:34:08.231Z,53.93
2018-09-19T05:36:37.685Z,61.30
2018-09-19T05:39:07.260Z,52.73
2018-09-19T05:41:35.760Z,51.60
2018-09-19T05:44:04.332Z,55.67
2018-09-19T05:46:37.634Z,50.17
2018-09-19T05:49:06.660Z,51.30
2018-09-19T05:51:35.144Z,47.03
2018-09-19T05:54:03.730Z,47.33
2018-09-19T05:56:33.332Z,45.27
2018-09-19T05:59:02.882Z,42.73
2018-09-19T06:01:31.242Z,42.33
2018-09-19T06:03:59.683Z,36.67
2018-09-19T06:06:28.555Z,34.13
2018-09-19T06:08:57.028Z,40.83
2018-09-19T06:11:25.639Z,37.47
2018-09-19T06:13:53.992Z,36.23
2018-09-19T06:16:22.498Z,34.40
2018-09-19T06:18:51.078Z,29.57
2018-09-19T06:21:19.629Z,30.00
2018-09-19T06:23:47.999Z,31.17
2018-09-19T06:26:16.416Z,28.00
2018-09-19T06:28:44.930Z,23.37
2018-09-19T06:31:13.369Z,25.53
2018-09-19T06:33:41.716Z,24.73
2018-09-19T06:36:10.207Z,27.07
2018-09-19T06:38:38.599Z,27.53
2018-09-19T06:41:07.017Z,29.80
2018-09-19T06:43:35.456Z,30.20
2018-09-19T06:46:03.885Z,26.23
2018-09-19T06:48:32.295Z,30.83
2018-09-19T06:51:00.712Z,26.87
2018-09-19T06:53:29.060Z,26.30
2018-09-19T06:55:57.428Z,28.33
2018-09-19T06:58:25.805Z,25.77
2018-09-19T07:00:54.241Z,29.03
2018-09-19T07:03:22.730Z,29.40
2018-09-19T07:05:51.299Z,29.97
2018-09-19T07:08:19.718Z,29.93
2018-09-19T07:10:48.161Z,29.77
2018-09-19T07:13:16.595Z,29.37
2018-09-19T07:15:44.957Z,26.73
2018-09-19T07:18:13.421Z,28.30
2018-09-19T07:20:41.720Z,30.93
2018-09-19T07:23:10.172Z,28.17
2018-09-19T07:25:38.552Z,27.77
2018-09-19T07:28:06.995Z,31.03
2018-09-19T07:30:35.469Z,27.47
2018-09-19T07:33:04.004Z,29.00
2018-09-19T07:35:32.418Z,30.23
2018-09-19T07:38:00.851Z,26.57
2018-09-19T07:40:29.283Z,29.57
2018-09-19T07:42:57.636Z,27.47
2018-09-19T07:45:26.111Z,27.50
2018-09-19T07:47:54.519Z,22.37
2018-09-19T07:50:22.962Z,28.00
2018-09-19T07:52:51.426Z,26.33
2018-09-19T07:55:19.911Z,23.27
2018-09-19T07:57:48.301Z,27.20
2018-09-19T08:00:16.656Z,31.97
2018-09-19T08:02:45.079Z,25.47
2018-09-19T08:05:14.960Z,28.60
2018-09-19T08:07:43.446Z,28.67
2018-09-19T08:10:12.343Z,29.63
2018-09-19T08:12:40.901Z,25.17
2018-09-19T08:15:09.418Z,21.67
2018-09-19T08:17:37.892Z,32.17
2018-09-19T08:20:06.433Z,27.70
2018-09-19T08:22:34.881Z,24.33
2018-09-19T08:25:03.321Z,23.77
2018-09-19T08:27:31.794Z,27.63
2018-09-19T08:30:01.322Z,26.63
2018-09-19T08:32:29.701Z,24.17
2018-09-19T08:34:58.362Z,24.67
2018-09-19T08:37:27.130Z,22.60
2018-09-19T08:39:55.640Z,19.97
2018-09-19T08:42:24.020Z,21.80
2018-09-19T08:44:52.446Z,19.87
2018-09-19T08:47:21.006Z,27.00
2018-09-19T08:49:49.427Z,25.83
2018-09-19T08:52:17.807Z,20.23
2018-09-19T08:54:46.125Z,23.93
2018-09-19T08:57:14.521Z,24.53
2018-09-19T08:59:42.929Z,23.43
2018-09-19T09:02:11.403Z,21.93
2018-09-19T09:04:39.948Z,25.00
2018-09-19T09:07:08.397Z,27.00
2018-09-19T09:09:36.850Z,26.07
2018-09-19T09:12:05.439Z,28.67
2018-09-19T09:14:33.832Z,23.63
2018-09-19T09:17:02.364Z,27.47
2018-09-19T09:19:30.777Z,19.87
2018-09-19T09:21:59.167Z,19.67
2018-09-19T09:24:28.276Z,20.07
2018-09-19T09:26:57.866Z,19.67
2018-09-19T09:29:26.253Z,17.80
2018-09-19T09:31:54.967Z,18.13
2018-09-19T09:34:23.614Z,17.90
2018-09-19T09:36:52.676Z,16.77
2018-09-19T09:39:21.161Z,17.60
2018-09-19T09:41:52.447Z,17.47
2018-09-19T09:44:21.520Z,18.87
2018-09-19T09:46:49.987Z,16.83
2018-09-19T09:49:18.489Z,18.77
2018-09-19T09:51:48.211Z,18.50
2018-09-19T09:54:16.751Z,15.33
2018-09-19T09:56:46.004Z,24.07
2018-09-19T09:59:19.598Z,17.97
2018-09-19T10:01:56.883Z,15.53
2018-09-19T10:07:44.783Z,19.40
2018-09-19T10:11:17.210Z,17.07
2018-09-19T10:14:13.460Z,20.83
2018-09-19T10:21:17.397Z,19.23
2018-09-19T10:23:45.978Z,13.57
2018-09-19T10:26:25.282Z,17.50
2018-09-19T10:29:01.211Z,16.30
2018-09-19T10:31:31.465Z,19.07
2018-09-19T10:34:06.000Z,12.87
2018-09-19T10:36:34.890Z,16.30
2018-09-19T10:39:04.841Z,22.50
2018-09-19T10:44:20.465Z,15.43
2018-09-19T10:46:48.954Z,18.43
2018-09-19T10:49:17.564Z,16.87
2018-09-19T10:51:53.545Z,14.57
2018-09-19T10:54:27.896Z,12.97
2018-09-19T10:56:56.609Z,17.03
2018-09-19T10:59:28.833Z,13.93
2018-09-19T11:02:02.502Z,21.60
2018-09-19T11:04:31.980Z,19.43
2018-09-19T11:07:00.556Z,13.53
2018-09-19T11:09:32.852Z,14.73
2018-09-19T11:12:02.490Z,16.07
2018-09-19T11:14:35.096Z,13.90
2018-09-19T11:17:04.328Z,13.10
2018-09-19T11:19:32.872Z,14.37
2018-09-19T11:22:01.478Z,11.97
2018-09-19T11:24:39.873Z,13.83
2018-09-19T11:27:09.462Z,11.37
2018-09-19T11:29:38.164Z,12.40
2018-09-19T11:32:09.897Z,15.53
2018-09-19T11:34:38.531Z,11.50
2018-09-19T11:37:07.013Z,18.80
2018-09-19T11:39:35.502Z,12.40
2018-09-19T11:42:04.049Z,12.57
2018-09-19T11:44:32.570Z,8.10
2018-09-19T11:47:01.039Z,14.07
2018-09-19T11:49:29.422Z,10.53
2018-09-19T11:51:59.963Z,10.63
2018-09-19T11:54:30.231Z,7.53
2018-09-19T11:56:58.675Z,10.60
2018-09-19T11:59:27.382Z,10.40
2018-09-19T12:01:56.475Z,14.33
2018-09-19T12:04:25.024Z,11.90
2018-09-19T12:06:53.697Z,10.27
2018-09-19T12:09:22.663Z,7.93
2018-09-19T12:11:51.083Z,10.00
2018-09-19T12:14:19.500Z,9.90
2018-09-19T12:16:48.107Z,9.10
2018-09-19T12:19:16.563Z,10.20
2018-09-19T12:21:44.909Z,11.27
2018-09-19T12:24:13.309Z,12.00
2018-09-19T12:26:41.750Z,11.07
2018-09-19T12:29:10.466Z,9.07
2018-09-19T12:31:38.974Z,8.57
2018-09-19T12:34:07.316Z,14.20
2018-09-19T12:36:35.640Z,10.93
2018-09-19T12:39:05.051Z,7.73
2018-09-19T12:41:33.363Z,8.27
2018-09-19T12:44:01.796Z,12.00
2018-09-19T12:46:39.338Z,13.13
2018-09-19T12:49:07.856Z,11.17
2018-09-19T12:51:36.318Z,9.23
2018-09-19T12:54:04.805Z,10.07
2018-09-19T12:56:33.198Z,8.63
2018-09-19T12:59:01.715Z,9.63
2018-09-19T13:01:30.199Z,12.17
2018-09-19T13:03:58.698Z,13.03
2018-09-19T13:06:27.180Z,10.00
2018-09-19T13:08:55.486Z,9.83
2018-09-19T13:11:23.866Z,6.97
2018-09-19T13:13:52.322Z,9.50
2018-09-19T13:16:20.803Z,11.60
2018-09-19T13:18:49.401Z,9.47
2018-09-19T13:21:17.903Z,10.10
2018-09-19T13:23:46.415Z,10.20
2018-09-19T13:26:14.895Z,8.70
2018-09-19T13:28:43.429Z,9.13
2018-09-19T13:31:14.834Z,15.87
2018-09-19T13:33:43.436Z,16.13
2018-09-19T13:36:12.189Z,11.23
2018-09-19T13:38:40.684Z,12.10
2018-09-19T13:41:09.148Z,11.33
2018-09-19T13:43:37.566Z,11.70
2018-09-19T13:46:07.214Z,11.13
2018-09-19T13:48:35.603Z,11.93
2018-09-19T13:51:10.640Z,11.77
2018-09-19T13:53:39.211Z,8.90
2018-09-19T13:56:07.672Z,10.00
2018-09-19T13:58:36.092Z,11.83
2018-09-19T14:01:05.514Z,10.63
2018-09-19T14:03:33.987Z,12.00
2018-09-19T14:06:03.474Z,10.30
2018-09-19T14:08:38.273Z,9.47
2018-09-19T14:14:14.902Z,8.53
2018-09-19T14:16:44.168Z,10.20
2018-09-19T14:21:59.613Z,10.13
2018-09-19T14:24:34.901Z,13.97
2018-09-19T14:27:14.392Z,15.40
2018-09-19T14:29:51.370Z,9.97
2018-09-19T14:32:40.285Z,12.27
2018-09-19T14:38:06.621Z,9.10
2018-09-19T14:40:44.521Z,10.57
2018-09-19T14:50:26.718Z,11.30
2018-09-19T14:52:58.934Z,9.27
2018-09-19T14:55:39.581Z,9.77
2018-09-19T15:04:52.163Z,7.10
2018-09-19T15:07:21.354Z,8.40
2018-09-19T15:09:53.247Z,7.23
2018-09-19T15:12:22.527Z,11.67
2018-09-19T15:14:51.184Z,8.27
2018-09-19T15:17:20.031Z,9.10
2018-09-19T15:19:48.543Z,7.20
2018-09-19T15:22:17.044Z,7.87
2018-09-19T15:24:56.263Z,9.20
2018-09-19T15:27:24.957Z,8.70
2018-09-19T15:29:53.603Z,8.33
2018-09-19T15:32:22.481Z,9.60
2018-09-19T15:34:51.880Z,12.23
2018-09-19T15:37:39.175Z,9.40
2018-09-19T15:40:09.405Z,6.60
2018-09-19T15:42:43.310Z,9.57
2018-09-19T15:45:20.685Z,10.40
2018-09-19T15:47:51.491Z,8.50
2018-09-19T15:54:14.327Z,7.77
2018-09-19T16:24:38.227Z,12.17
2018-09-19T16:27:10.179Z,9.87
2018-09-19T16:29:39.879Z,13.37
2018-09-19T16:32:10.009Z,8.90
2018-09-19T16:34:39.147Z,12.60
2018-09-19T16:37:07.751Z,7.77
2018-09-19T16:39:36.009Z,10.53
2018-09-19T16:42:04.635Z,11.00
2018-09-19T16:44:37.013Z,7.80
2018-09-19T16:47:05.613Z,8.43
2018-09-19T16:49:35.462Z,10.70
2018-09-19T16:52:05.641Z,10.30
2018-09-19T16:54:34.827Z,9.40
2018-09-19T16:57:04.840Z,13.43
2018-09-19T16:59:33.833Z,9.77
2018-09-19T17:02:03.019Z,11.53
2018-09-19T17:05:04.093Z,11.27
2018-09-19T17:07:39.785Z,11.87
2018-09-19T17:10:09.254Z,8.30
2018-09-19T17:12:46.534Z,6.57
2018-09-19T17:15:15.093Z,11.30
2018-09-19T17:17:43.753Z,13.33
2018-09-19T17:20:12.225Z,12.17
2018-09-19T17:22:40.671Z,14.20
2018-09-19T17:25:09.054Z,11.53
2018-09-19T17:27:38.176Z,11.90
2018-09-19T17:30:09.060Z,6.83
2018-09-19T17:32:37.692Z,6.73
2018-09-19T17:35:09.434Z,11.03
2018-09-19T17:37:44.739Z,10.37
2018-09-19T17:40:14.406Z,7.70
2018-09-19T17:43:02.022Z,10.10
2018-09-19T17:45:31.423Z,8.87
2018-09-19T17:48:02.705Z,11.87
2018-09-19T17:50:31.562Z,11.30
2018-09-19T17:53:00.334Z,9.40
2018-09-19T17:55:32.621Z,12.80
2018-09-19T17:58:01.216Z,9.63
2018-09-19T18:01:11.005Z,10.83
2018-09-19T18:03:42.646Z,11.20
2018-09-19T18:06:14.626Z,10.57
2018-09-19T18:08:59.633Z,7.57
2018-09-19T18:11:28.778Z,7.67
2018-09-19T18:14:10.687Z,10.17
2018-09-19T18:16:40.273Z,6.97
2018-09-19T18:19:10.777Z,8.53
2018-09-19T18:21:40.907Z,9.27
2018-09-19T18:24:09.531Z,9.00
2018-09-19T18:26:38.113Z,12.60
2018-09-19T18:29:27.430Z,10.57
2018-09-19T18:38:44.304Z,11.60
2018-09-19T21:40:49.405Z,13.13
2018-09-19T21:57:08.002Z,21.13
2018-09-19T21:59:37.413Z,13.87
2018-09-19T22:02:07.405Z,14.77
2018-09-19T22:04:43.722Z,19.00
2018-09-19T22:07:18.040Z,15.13
2018-09-19T22:10:04.425Z,14.60
2018-09-19T22:12:35.446Z,13.63
2018-09-19T22:15:06.782Z,20.80
2018-09-19T22:17:53.709Z,15.23
2018-09-19T22:20:24.021Z,16.27
2018-09-19T22:28:31.429Z,13.73
2018-09-19T22:34:16.013Z,13.57
2018-09-19T22:36:53.999Z,17.40
2018-09-19T22:39:32.184Z,19.23
2018-09-19T22:42:07.042Z,13.93
2018-09-19T22:44:48.532Z,17.67
2018-09-19T22:47:28.280Z,15.73
2018-09-19T22:49:59.861Z,13.10
2018-09-19T22:52:36.100Z,13.83
2018-09-19T22:55:09.937Z,13.47
2018-09-19T22:57:42.266Z,14.63
2018-09-19T23:00:14.058Z,11.03
2018-09-19T23:02:48.476Z,13.80
2018-09-19T23:05:17.820Z,15.90
2018-09-19T23:07:52.096Z,12.47
2018-09-19T23:10:22.155Z,15.57
2018-09-19T23:12:56.471Z,12.90
2018-09-19T23:15:26.419Z,17.67
2018-09-19T23:18:05.799Z,10.63
2018-09-19T23:20:43.298Z,12.70
2018-09-19T23:23:13.676Z,17.57
2018-09-19T23:25:45.950Z,12.13
2018-09-19T23:28:15.949Z,13.97
2018-09-19T23:30:47.010Z,14.03
2018-09-19T23:33:22.766Z,14.27
2018-09-19T23:35:54.828Z,10.93
2018-09-19T23:38:28.223Z,16.33
2018-09-19T23:43:43.011Z,13.53
2018-09-19T23:46:21.318Z,15.17
2018-09-19T23:48:50.816Z,18.23
2018-09-19T23:51:20.657Z,19.60
2018-09-19T23:53:52.283Z,14.10
2018-09-19T23:56:24.687Z,12.93
2018-09-19T23:58:54.184Z,12.47
